Main page
METAR-TAF:

METAR-TAF

Airports :

Diori Hamani International Airport

Niamey, Niger

latitude: 13-29N, longitude: 002-10E, elevation: 223 m

Current weather observation

The report was made 34 minutes ago, at 07:00 UTC
Wind 6 kt from the West/Southwest, varying between South/Southwest and West
Temperature 28°C
Humidity 70%
Pressure 1013 hPa
Visibility 10 km or more
no clouds below 1500 m and no cumulonimbus

METAR: DRRN 260700Z 24006KT 200V260 CAVOK 28/22 Q1013 NOSIG

Time: 08:34 (07:34 UTC)

Forecast

The report was made 8 hours and 34 minutes ago, at 23:00 UTC
Forecast valid from 26 at 00 UTC to 27 at 06 UTC
Wind 6 kt from the Southwest
Visibility 10 km or more
no clouds below 1500 m and no cumulonimbus
Probability 30%
from 26 at 15 UTC to 26 at 21 UTC
Scattered clouds at a height of 2600 ft
Few clouds at a height of 3300 ft, Cumulonimbus.
thunderstorm

TAF: DRRN 252300Z 2600/2706 22006KT CAVOK PROB30 2615/2621 TS SCT026 FEW033CB

Weather observations and forecasts of more than 4000 airports (METAR and TAF reports).

The available stations are represented by yellow and red dots on the map.

Hover mouse over dot to see the name of the station.

Then click to see weather observations and forecasts.

To change the map : click on the green buttons with a black cross to zoom in, on the green button with a dash to zoom out, or on the green arrows for adjacent maps.


METAR-TAF: